Flight Track Log - Related Links

Times and Time Zones

All times are in EDT time to prevent confusion due to time zone crossing. See the AWI3704 flight status page for this flight to view local times or setup timezone preferences in your user account.

Time Position Orientation Groundspeed Altitude Reporting Facility
EDT Latitude Longitude Course Direction KTS MPH feet Rate Location/Type
Sat 11:27:20 AM 42.7647 -74.1625 260° West 272 313 10,700  Level Boston Center
Sat 11:28:20 AM 42.7503 -74.2694 260° West 279 321 13,100 2,150 Climbing Boston Center
Sat 11:29:20 AM 42.7072 -74.3558 236° Southwest 280 322 15,000 1,450 Climbing Boston Center
Sat 11:30:20 AM 42.6372 -74.4325 219° Southwest 305 351 16,000 550 Climbing Boston Center
Sat 11:31:20 AM 42.5756 -74.5069 222° Southwest 329 379 16,100 50 Climbing Boston Center
Sat 11:32:20 AM 42.4986 -74.5972 221° Southwest 329 379 16,100 -50 Level Boston Center
Sat 11:33:20 AM 42.4306 -74.6708 219° Southwest 339 390 16,000 -36 Descending Boston Center
Sat 11:35:06 AM 42.3019 -74.8194 221° Southwest 341 392 16,000  Level New York Center
Sat 11:36:03 AM 42.2306 -74.8989 219° Southwest 341 392 16,000  Level New York Center
Sat 11:37:04 AM 42.1547 -74.9781 218° Southwest 341 392 16,000  Level New York Center
Sat 11:38:03 AM 42.0861 -75.0381 213° Southwest 341 392 16,000  Level New York Center
Sat 11:39:03 AM 42.0003 -75.1078 211° Southwest 336 387 16,000  Level New York Center
Sat 11:40:04 AM 41.9211 -75.1694 210° Southwest 336 387 16,000  Level New York Center
Sat 11:41:04 AM 41.8436 -75.2339 212° Southwest 336 387 16,000  Level New York Center
Sat 11:42:05 AM 41.7706 -75.2931 211° Southwest 336 387 16,000 -496 Level New York Center
Sat 11:43:05 AM 41.6847 -75.3622 211° Southwest 336 387 15,000 -1,017 Descending New York Center
Sat 11:44:03 AM 41.6094 -75.4236 211° Southwest 330 380 14,000 -1,017 Descending New York Center
Sat 11:45:03 AM 41.5342 -75.4822 210° Southwest 325 374 13,000 -942 Descending New York Center
Sat 11:46:04 AM 41.4697 -75.5331 211° Southwest 315 362 12,100 -496 Descending New York Center
Sat 11:47:04 AM 41.3967 -75.5914 211° Southwest 315 362 12,000 -50 Descending New York Center
Sat 11:48:03 AM 41.3192 -75.6522 211° Southwest 315 362 12,000  Level New York Center
Sat 11:49:05 AM 41.2219 -75.6864 195° South 326 375 12,000  Level New York Center
Sat 11:50:03 AM 41.1239 -75.6875 180° South 337 388 12,000  Level New York Center
Sat 11:51:03 AM 41.0283 -75.6806 177° South 349 402 12,000  Level New York Center
Sat 11:52:04 AM 40.9342 -75.6408 162° South 354 407 12,000  Level New York Center
Sat 11:53:05 AM 40.8419 -75.6014 162° South 354 407 12,000  Level New York Center
Sat 11:54:03 AM 40.7517 -75.5650 163° South 354 407 12,000  Level New York Center
Sat 11:55:03 AM 40.6597 -75.5203 160° South 354 407 12,000 -198 Level New York Center
Sat 11:56:04 AM 40.5675 -75.4836 163° South 354 407 11,600 -893 Descending New York Center
Sat 11:57:04 AM 40.4814 -75.4478 162° South 339 390 10,200 -843 Descending New York Center
Sat 11:58:05 AM 40.4167 -75.3997 151° Southeast 307 353 9,900 -793 Descending New York Center
Sat 11:59:05 AM 40.3525 -75.3328 142° Southeast 301 346 8,600 -1,525 Descending New York Center
Sat 12:00:03 PM 40.2825 -75.2603 142° Southeast 296 341 6,900 -1,322 Descending New York Center
Sat 12:01:03 PM 40.2203 -75.1964 142° Southeast 291 335 6,000 -450 Descending New York Center
Sat 12:02:03 PM 40.1558 -75.1353 144° Southeast 291 335 6,000 -650 Level New York Center
Sat 12:03:03 PM 40.0925 -75.1014 158° South 274 315 4,700 -1,169 Descending New York Center
Sat 12:04:01 PM 40.0167 -75.0667 161° South 242 278 3,700 -864 Descending Philadelphia TRACON
Sat 12:05:01 PM 39.9667 -75.0500 166° South 213 245 3,000 -800 Descending Philadelphia TRACON
Sat 12:06:01 PM 39.9167 -75.0833 207° Southwest 195 224 2,100 -850 Descending Philadelphia TRACON
Sat 12:07:01 PM 39.9000 -75.1333 247° West 151 174 1,300 -737 Descending Philadelphia TRACON
Sat 12:07:55 PM 39.8833 -75.1833 247° West 128 147 700 -667 Descending Philadelphia TRACON
Sat 12:11:00 PM 39.8667 -75.2333 247° West  Level FlightAware Approximate

Login

Don't have an account? Register now (free) for customized features, flight alerts, and more!